Time;durP1;ratioP1;P1;durP2;ratioP2;P2;SDS_P1;SDS_P2;PMS_P1;PMS_P2;Temp;Humidity;BMP_temperature;BMP_pressure;BME280_temperature;BME280_humidity;BME280_pressure;Samples;Min_cycle;Max_cycle;Signal;HPM_P1;HPM_P2
2023/03/08 00:00:35;;;;;;;;;;;0.10;99.90;;;;;;5094320;28;19935;-53
2023/03/08 00:03:01;;;;;;;;;;;0.10;99.90;;;;;;5095843;28;19912;-52
2023/03/08 00:05:27;;;;;;;;;;;0.10;99.90;;;;;;5095510;28;19935;-50
2023/03/08 00:07:52;;;;;;;;;;;0.10;99.90;;;;;;5094527;28;20299;-54
2023/03/08 00:10:18;;;;;;;;;;;0.10;99.90;;;;;;5095211;28;19915;-52
2023/03/08 00:12:43;;;;;;;;;;;0.10;99.90;;;;;;5094956;28;19999;-52
2023/03/08 00:15:09;;;;;;;;;;;0.00;99.90;;;;;;5095710;28;19908;-54
2023/03/08 00:17:35;;;;;;;;;;;0.00;99.90;;;;;;5095620;28;19916;-54
2023/03/08 00:20:01;;;;;;;;;;;0.00;99.90;;;;;;5094794;28;19970;-51
2023/03/08 00:22:26;;;;;;;;;;;0.00;99.90;;;;;;5095443;28;20011;-51
2023/03/08 00:24:52;;;;;;;;;;;0.00;99.90;;;;;;5095745;28;20371;-53
2023/03/08 00:27:18;;;;;;;;;;;-0.10;99.90;;;;;;5094307;28;19924;-52
2023/03/08 00:29:43;;;;;;;;;;;-0.10;99.90;;;;;;5095448;28;19915;-53
2023/03/08 00:32:09;;;;;;;;;;;-0.10;99.90;;;;;;5095294;28;19909;-54
2023/03/08 00:34:34;;;;;;;;;;;-0.10;99.90;;;;;;5094544;28;20363;-54
2023/03/08 00:36:59;;;;;;;;;;;-0.10;99.90;;;;;;5095349;28;20061;-54
2023/03/08 00:39:25;;;;;;;;;;;-0.10;99.90;;;;;;5095153;28;20278;-53
2023/03/08 00:41:50;;;;;;;;;;;-0.10;99.90;;;;;;5094420;28;19953;-57
2023/03/08 00:44:16;;;;;;;;;;;-0.20;99.90;;;;;;5095078;28;19908;-53
2023/03/08 00:46:41;;;;;;;;;;;-0.20;99.90;;;;;;5095108;28;20378;-55
2023/03/08 00:49:07;;;;;;;;;;;-0.20;99.90;;;;;;5094083;28;20057;-56
2023/03/08 00:51:33;;;;;;;;;;;-0.20;99.90;;;;;;5095371;28;19915;-55
2023/03/08 00:53:58;;;;;;;;;;;-0.20;99.90;;;;;;5094812;28;19909;-56
2023/03/08 00:56:24;;;;;;;;;;;-0.20;99.90;;;;;;5093882;28;20012;-53
2023/03/08 00:58:49;;;;;;;;;;;-0.20;99.90;;;;;;5094563;28;19926;-54
2023/03/08 01:01:16;;;;;;;;;;;-0.20;99.90;;;;;;5094890;28;20363;-55
2023/03/08 01:03:42;;;;;;;;;;;-0.20;99.90;;;;;;5094004;28;19997;-55
2023/03/08 01:06:09;;;;;;;;;;;-0.20;99.90;;;;;;5094601;28;20410;-55
2023/03/08 01:08:34;;;;;;;;;;;-0.30;99.90;;;;;;5094499;28;19939;-57
2023/03/08 01:11:00;;;;;;;;;;;-0.30;99.90;;;;;;5093778;28;20290;-55
2023/03/08 01:13:28;;;;;;;;;;;-0.30;99.90;;;;;;5094409;28;20274;-55
2023/03/08 01:15:53;;;;;;;;;;;-0.30;99.90;;;;;;5094520;28;19908;-58
2023/03/08 01:18:19;;;;;;;;;;;-0.30;99.90;;;;;;5094035;28;19991;-54
2023/03/08 01:20:44;;;;;;;;;;;-0.40;99.90;;;;;;5094615;28;20342;-55
2023/03/08 01:23:10;;;;;;;;;;;-0.40;99.90;;;;;;5093576;28;19912;-55
2023/03/08 01:25:35;;;;;;;;;;;-0.40;99.90;;;;;;5094268;28;20320;-55
2023/03/08 01:28:01;;;;;;;;;;;-0.40;99.90;;;;;;5094239;28;20371;-55
2023/03/08 01:30:27;;;;;;;;;;;-0.40;99.90;;;;;;5093383;28;19908;-56
2023/03/08 01:32:52;;;;;;;;;;;-0.40;99.90;;;;;;5094213;28;19947;-56
2023/03/08 01:35:18;;;;;;;;;;;-0.40;99.90;;;;;;5094317;28;20378;-56
2023/03/08 01:37:44;;;;;;;;;;;-0.40;99.90;;;;;;5093330;28;19962;-57
2023/03/08 01:40:10;;;;;;;;;;;-0.40;99.90;;;;;;5093933;28;20359;-56
2023/03/08 01:42:37;;;;;;;;;;;-0.40;99.90;;;;;;5093955;28;19940;-56
2023/03/08 01:45:04;;;;;;;;;;;-0.40;99.90;;;;;;5093278;28;19981;-56
2023/03/08 01:47:31;;;;;;;;;;;-0.40;99.90;;;;;;5093698;28;19916;-56
2023/03/08 01:50:04;;;;;;;;;;;-0.40;99.90;;;;;;5094187;28;19908;-57
2023/03/08 01:52:31;;;;;;;;;;;-0.50;99.90;;;;;;5092802;28;19908;-56
2023/03/08 01:54:58;;;;;;;;;;;-0.50;99.90;;;;;;5093875;28;19915;-56
2023/03/08 01:57:29;;;;;;;;;;;-0.60;99.90;;;;;;5093392;28;19923;-56
2023/03/08 01:59:55;;;;;;;;;;;-0.60;99.90;;;;;;5092692;28;20022;-57
2023/03/08 02:02:23;;;;;;;;;;;-0.60;99.90;;;;;;5093472;28;20271;-57
2023/03/08 02:04:49;;;;;;;;;;;-0.60;99.90;;;;;;5093568;28;19915;-57
2023/03/08 02:07:14;;;;;;;;;;;-0.50;99.90;;;;;;5092514;28;19912;-57
2023/03/08 02:09:40;;;;;;;;;;;-0.50;99.90;;;;;;5093085;28;20311;-57
2023/03/08 02:12:07;;;;;;;;;;;-0.50;99.90;;;;;;5093427;28;20359;-56
2023/03/08 02:14:33;;;;;;;;;;;-0.50;99.90;;;;;;5092703;28;19977;-58
2023/03/08 02:16:58;;;;;;;;;;;-0.50;99.90;;;;;;5093014;28;20359;-57
2023/03/08 02:19:42;;;;;;;;;;;-0.40;99.90;;;;;;5085638;28;19935;-58
2023/03/08 02:22:11;;;;;;;;;;;-0.50;99.90;;;;;;5092010;28;19912;-57
2023/03/08 02:24:37;;;;;;;;;;;-0.50;99.90;;;;;;5078160;28;20351;-60
2023/03/08 02:27:08;;;;;;;;;;;-0.50;99.90;;;;;;5081469;28;19945;-59
2023/03/08 02:29:33;;;;;;;;;;;-0.50;99.90;;;;;;5072742;28;19965;-57
2023/03/08 02:31:59;;;;;;;;;;;-0.50;99.90;;;;;;5089162;28;19916;-58
2023/03/08 02:34:24;;;;;;;;;;;-0.60;99.90;;;;;;5091862;28;19919;-60
2023/03/08 02:36:50;;;;;;;;;;;-0.50;99.90;;;;;;5083590;28;19912;-59
2023/03/08 02:39:15;;;;;;;;;;;-0.50;99.90;;;;;;5082149;28;19908;-58
2023/03/08 02:41:41;;;;;;;;;;;-0.60;99.90;;;;;;5092292;28;19908;-61
2023/03/08 02:44:06;;;;;;;;;;;-0.60;99.90;;;;;;5092853;28;19931;-58
2023/03/08 02:46:33;;;;;;;;;;;-0.50;99.90;;;;;;5092932;28;19919;-59
2023/03/08 02:48:58;;;;;;;;;;;-0.50;99.90;;;;;;5092031;28;19926;-58
2023/03/08 02:51:24;;;;;;;;;;;-0.60;99.90;;;;;;5092913;28;19908;-59
2023/03/08 02:53:49;;;;;;;;;;;-0.60;99.90;;;;;;5092869;28;19909;-59
2023/03/08 02:56:14;;;;;;;;;;;-0.60;99.90;;;;;;5092019;28;19943;-59
2023/03/08 02:58:40;;;;;;;;;;;-0.60;99.90;;;;;;5092649;28;19920;-59
2023/03/08 03:01:09;;;;;;;;;;;-0.60;99.90;;;;;;5093091;28;19966;-60
2023/03/08 03:03:35;;;;;;;;;;;-0.60;99.90;;;;;;5091980;28;19912;-60
2023/03/08 03:06:00;;;;;;;;;;;-0.60;99.90;;;;;;5092965;28;19966;-60
2023/03/08 03:08:28;;;;;;;;;;;-0.60;99.90;;;;;;5092382;28;19917;-58
2023/03/08 03:10:53;;;;;;;;;;;-0.60;99.90;;;;;;5092734;28;19908;-60
2023/03/08 03:13:19;;;;;;;;;;;-0.60;99.90;;;;;;5092637;28;20447;-60
2023/03/08 03:15:44;;;;;;;;;;;-0.60;99.90;;;;;;5091742;28;19908;-60
2023/03/08 03:18:10;;;;;;;;;;;-0.60;99.90;;;;;;5092578;28;19995;-60
2023/03/08 03:20:35;;;;;;;;;;;-0.60;99.90;;;;;;5092758;28;20382;-60
2023/03/08 03:23:01;;;;;;;;;;;-0.60;99.90;;;;;;5095327;28;19908;-59
2023/03/08 03:25:26;;;;;;;;;;;-0.60;99.90;;;;;;5096621;28;20351;-64
2023/03/08 03:27:53;;;;;;;;;;;-0.60;99.90;;;;;;5096499;28;19927;-60
2023/03/08 03:30:18;;;;;;;;;;;-0.60;99.90;;;;;;5095775;28;19919;-60
2023/03/08 03:32:44;;;;;;;;;;;-0.70;99.90;;;;;;5078273;28;19908;-61
2023/03/08 03:35:09;;;;;;;;;;;-0.60;99.90;;;;;;5096261;28;20004;-61
2023/03/08 03:37:35;;;;;;;;;;;-0.60;99.90;;;;;;5095307;28;19966;-62
2023/03/08 03:40:01;;;;;;;;;;;-0.70;99.90;;;;;;5096300;28;19908;-62
2023/03/08 03:42:26;;;;;;;;;;;-0.60;99.90;;;;;;5096162;28;20274;-62
2023/03/08 03:44:52;;;;;;;;;;;-0.70;99.90;;;;;;5095710;28;20113;-63
2023/03/08 03:47:17;;;;;;;;;;;-0.70;99.90;;;;;;5096102;28;19924;-62
2023/03/08 03:49:43;;;;;;;;;;;-0.60;99.90;;;;;;5096439;28;19915;-64
2023/03/08 03:52:08;;;;;;;;;;;-0.70;99.90;;;;;;5095316;28;20371;-62
2023/03/08 03:54:34;;;;;;;;;;;-0.70;99.90;;;;;;5096323;28;19915;-62
2023/03/08 03:56:59;;;;;;;;;;;-0.70;99.90;;;;;;5096053;28;20347;-62
2023/03/08 03:59:25;;;;;;;;;;;-0.70;99.90;;;;;;5095031;28;20367;-63
2023/03/08 04:01:50;;;;;;;;;;;-0.70;99.90;;;;;;5096279;28;19995;-63
2023/03/08 04:04:16;;;;;;;;;;;-0.70;99.90;;;;;;5095929;28;19912;-64
2023/03/08 04:06:41;;;;;;;;;;;-0.80;99.90;;;;;;5095218;28;19908;-63
2023/03/08 04:09:11;;;;;;;;;;;-0.80;99.90;;;;;;5095775;28;19916;-63
2023/03/08 04:11:37;;;;;;;;;;;-0.80;99.90;;;;;;5096190;28;19916;-64
2023/03/08 04:14:03;;;;;;;;;;;-0.90;99.90;;;;;;5095304;28;20056;-65
2023/03/08 04:16:30;;;;;;;;;;;-0.80;99.90;;;;;;5096122;28;20359;-67
2023/03/08 04:19:16;;;;;;;;;;;-0.80;99.90;;;;;;5096000;28;19908;-66
2023/03/08 04:21:41;;;;;;;;;;;-0.90;99.90;;;;;;5095927;28;19916;-67
2023/03/08 04:24:07;;;;;;;;;;;-0.80;99.90;;;;;;5078412;28;19908;-66
2023/03/08 04:26:32;;;;;;;;;;;-0.80;99.90;;;;;;5096134;28;19940;-68
2023/03/08 04:28:58;;;;;;;;;;;-0.80;99.90;;;;;;5097339;28;19926;-67
2023/03/08 04:31:25;;;;;;;;;;;-0.80;99.90;;;;;;5097419;28;20355;-67
2023/03/08 04:33:51;;;;;;;;;;;-0.90;99.90;;;;;;5096612;28;20003;-67
2023/03/08 04:36:17;;;;;;;;;;;-0.90;99.90;;;;;;5098048;28;20370;-69
2023/03/08 04:38:44;;;;;;;;;;;-1.00;99.90;;;;;;5098107;28;19990;-69
2023/03/08 04:41:12;;;;;;;;;;;-1.00;99.90;;;;;;5097071;28;19912;-69
2023/03/08 04:43:44;;;;;;;;;;;-1.10;99.90;;;;;;5098522;28;19912;-70
2023/03/08 04:46:10;;;;;;;;;;;-1.10;99.90;;;;;;5097820;28;19912;-70
2023/03/08 04:48:35;;;;;;;;;;;-1.10;99.90;;;;;;5097392;28;20015;-71
2023/03/08 04:51:02;;;;;;;;;;;-1.20;99.90;;;;;;5098827;28;19908;-70
2023/03/08 04:53:28;;;;;;;;;;;-1.20;99.90;;;;;;5098034;28;19909;-73
2023/03/08 04:55:54;;;;;;;;;;;-1.20;99.90;;;;;;5097844;28;19908;-75
2023/03/08 04:58:19;;;;;;;;;;;-1.30;99.90;;;;;;5098040;28;19919;-74
2023/03/08 05:00:45;;;;;;;;;;;-1.30;99.90;;;;;;5097620;28;19924;-73
2023/03/08 05:03:12;;;;;;;;;;;-1.30;99.90;;;;;;5097132;28;19915;-72
2023/03/08 05:05:43;;;;;;;;;;;-1.20;99.90;;;;;;5081925;28;20363;-70
2023/03/08 05:08:08;;;;;;;;;;;-1.20;99.90;;;;;;5076453;28;19952;-71
2023/03/08 05:10:34;;;;;;;;;;;-1.20;99.90;;;;;;5076379;28;19931;-71
2023/03/08 05:12:59;;;;;;;;;;;-1.20;99.90;;;;;;5075563;28;19912;-71
2023/03/08 05:15:25;;;;;;;;;;;-1.20;99.90;;;;;;5074844;28;20011;-71
2023/03/08 05:17:50;;;;;;;;;;;-1.10;99.90;;;;;;5074685;28;19915;-71
2023/03/08 05:20:16;;;;;;;;;;;-1.20;99.90;;;;;;5074553;28;19944;-71
2023/03/08 05:22:41;;;;;;;;;;;-1.20;99.90;;;;;;5073557;28;20325;-70
2023/03/08 05:25:07;;;;;;;;;;;-1.20;99.90;;;;;;5074102;28;20421;-68
2023/03/08 05:27:33;;;;;;;;;;;-1.20;99.90;;;;;;5074011;28;20332;-68
2023/03/08 05:29:59;;;;;;;;;;;-1.30;99.90;;;;;;5073407;28;19908;-68
2023/03/08 05:32:24;;;;;;;;;;;-1.20;99.90;;;;;;5073890;28;20311;-68
2023/03/08 05:34:51;;;;;;;;;;;-1.20;99.90;;;;;;5073872;28;19908;-69
2023/03/08 05:37:16;;;;;;;;;;;-1.20;99.90;;;;;;5073265;28;19908;-67
2023/03/08 05:39:42;;;;;;;;;;;-1.20;99.90;;;;;;5073655;28;19916;-67
2023/03/08 05:42:08;;;;;;;;;;;-1.20;99.90;;;;;;5089273;28;20020;-67
2023/03/08 05:44:34;;;;;;;;;;;-1.30;99.90;;;;;;5092413;28;20290;-67
2023/03/08 05:47:00;;;;;;;;;;;-1.20;99.90;;;;;;5093808;28;20355;-66
2023/03/08 05:49:25;;;;;;;;;;;-1.20;99.90;;;;;;5094079;28;19920;-67
2023/03/08 05:51:51;;;;;;;;;;;-1.30;99.90;;;;;;5087653;28;19954;-67
2023/03/08 05:54:16;;;;;;;;;;;-1.20;99.90;;;;;;5073419;28;20361;-66
2023/03/08 05:56:42;;;;;;;;;;;-1.20;99.90;;;;;;5059298;28;19909;-66
2023/03/08 05:59:07;;;;;;;;;;;-1.30;99.90;;;;;;5076089;28;20387;-66
2023/03/08 06:01:33;;;;;;;;;;;-1.20;99.90;;;;;;5093648;28;19912;-66
2023/03/08 06:03:58;;;;;;;;;;;-1.20;99.90;;;;;;5093459;28;19919;-64
2023/03/08 06:06:25;;;;;;;;;;;-1.20;99.90;;;;;;5092460;28;20389;-65
2023/03/08 06:08:51;;;;;;;;;;;-1.20;99.90;;;;;;5093351;28;20286;-65
2023/03/08 06:11:17;;;;;;;;;;;-1.20;99.90;;;;;;5093195;28;20006;-64
2023/03/08 06:13:43;;;;;;;;;;;-1.20;99.90;;;;;;5092818;28;20302;-66
2023/03/08 06:16:09;;;;;;;;;;;-1.20;99.90;;;;;;5093074;28;19919;-65
2023/03/08 06:18:35;;;;;;;;;;;-1.20;99.90;;;;;;5092510;28;20003;-63
2023/03/08 06:21:02;;;;;;;;;;;-1.20;99.90;;;;;;5093298;28;19915;-64
2023/03/08 06:23:28;;;;;;;;;;;-1.20;99.90;;;;;;5093319;28;19908;-64
2023/03/08 06:25:53;;;;;;;;;;;-1.30;99.90;;;;;;5092372;28;19916;-63
2023/03/08 06:28:19;;;;;;;;;;;-1.30;99.90;;;;;;5093394;28;19916;-63
2023/03/08 06:30:48;;;;;;;;;;;-1.30;99.90;;;;;;5092974;28;20324;-63
2023/03/08 06:33:15;;;;;;;;;;;-1.40;99.90;;;;;;5092204;28;20279;-63
2023/03/08 06:35:41;;;;;;;;;;;-1.40;99.90;;;;;;5093112;28;19986;-62
2023/03/08 06:38:06;;;;;;;;;;;-1.40;99.90;;;;;;5092856;28;20413;-63
2023/03/08 06:40:32;;;;;;;;;;;-1.40;99.90;;;;;;5092151;28;19912;-63
2023/03/08 06:42:57;;;;;;;;;;;-1.40;99.90;;;;;;5090051;28;19912;-62
2023/03/08 06:45:23;;;;;;;;;;;-1.40;99.90;;;;;;5083999;28;20406;-64
2023/03/08 06:47:48;;;;;;;;;;;-1.40;99.90;;;;;;5091193;28;20389;-63
2023/03/08 06:50:14;;;;;;;;;;;-1.40;99.90;;;;;;5073138;28;19908;-62
2023/03/08 06:52:39;;;;;;;;;;;-1.30;99.90;;;;;;5073077;28;19909;-63
2023/03/08 06:55:05;;;;;;;;;;;-1.30;99.90;;;;;;5088868;28;19912;-63
2023/03/08 06:57:31;;;;;;;;;;;-1.30;99.90;;;;;;5096423;28;19919;-62
2023/03/08 06:59:56;;;;;;;;;;;-1.30;99.90;;;;;;5099188;28;19919;-62
2023/03/08 07:02:22;;;;;;;;;;;-1.20;99.90;;;;;;5092433;28;19923;-63
2023/03/08 07:04:47;;;;;;;;;;;-1.20;99.90;;;;;;5092627;28;19908;-63
2023/03/08 07:07:13;;;;;;;;;;;-1.10;99.90;;;;;;5092538;28;20003;-61
2023/03/08 07:09:38;;;;;;;;;;;-1.10;99.90;;;;;;5091772;28;19912;-62
2023/03/08 07:12:04;;;;;;;;;;;-1.00;99.90;;;;;;5092669;28;19908;-63
2023/03/08 07:14:29;;;;;;;;;;;-1.00;99.90;;;;;;5092724;28;19908;-62
2023/03/08 07:16:55;;;;;;;;;;;-1.00;99.90;;;;;;5091947;28;20358;-62
2023/03/08 07:19:20;;;;;;;;;;;-0.90;99.90;;;;;;5092565;28;19909;-61
2023/03/08 07:21:46;;;;;;;;;;;-0.90;99.90;;;;;;5091821;28;19915;-62
2023/03/08 07:24:11;;;;;;;;;;;-0.90;99.90;;;;;;5074041;28;19966;-63
2023/03/08 07:26:37;;;;;;;;;;;-0.90;99.90;;;;;;5054371;28;19962;-62
2023/03/08 07:29:02;;;;;;;;;;;-0.90;99.90;;;;;;5071540;28;19920;-62
2023/03/08 07:31:34;;;;;;;;;;;-0.80;99.90;;;;;;5082488;28;20279;-61
2023/03/08 07:34:01;;;;;;;;;;;-0.70;99.90;;;;;;5092474;28;19908;-61
2023/03/08 07:36:26;;;;;;;;;;;-0.70;99.90;;;;;;5091522;28;19939;-62
2023/03/08 07:38:52;;;;;;;;;;;-0.60;99.90;;;;;;5074237;28;19944;-62
2023/03/08 07:41:17;;;;;;;;;;;-0.50;99.90;;;;;;5092642;28;19908;-62
2023/03/08 07:43:42;;;;;;;;;;;-0.40;99.90;;;;;;5087272;28;19916;-62
2023/03/08 07:46:08;;;;;;;;;;;-0.40;99.90;;;;;;5086883;28;19919;-62
2023/03/08 07:48:33;;;;;;;;;;;-0.30;99.90;;;;;;5092344;28;19938;-62
2023/03/08 07:51:07;;;;;;;;;;;-0.20;99.90;;;;;;5086353;28;19959;-63
2023/03/08 07:53:33;;;;;;;;;;;-0.20;99.90;;;;;;5092017;28;19915;-63
2023/03/08 07:55:58;;;;;;;;;;;-0.10;99.90;;;;;;5083997;28;19909;-62
2023/03/08 07:58:24;;;;;;;;;;;-0.10;99.90;;;;;;5071121;28;20170;-62
2023/03/08 08:00:50;;;;;;;;;;;0.00;99.90;;;;;;5072089;28;20291;-63
2023/03/08 08:03:15;;;;;;;;;;;0.00;99.90;;;;;;5082031;28;20263;-62
2023/03/08 08:05:41;;;;;;;;;;;0.10;99.90;;;;;;5091395;28;20001;-62
2023/03/08 08:08:06;;;;;;;;;;;0.20;99.90;;;;;;5093774;28;19991;-62
2023/03/08 08:10:32;;;;;;;;;;;0.20;99.90;;;;;;5083771;28;20267;-62
2023/03/08 08:12:57;;;;;;;;;;;0.30;99.90;;;;;;5087767;28;19920;-62
2023/03/08 08:15:24;;;;;;;;;;;0.40;99.90;;;;;;5078821;28;19920;-63
2023/03/08 08:17:50;;;;;;;;;;;0.40;99.90;;;;;;5075360;28;19909;-62
2023/03/08 08:20:16;;;;;;;;;;;0.50;99.90;;;;;;5074454;28;19916;-62
2023/03/08 08:22:41;;;;;;;;;;;0.50;99.90;;;;;;5081493;28;19916;-61
2023/03/08 08:25:07;;;;;;;;;;;0.60;99.90;;;;;;5091238;28;19920;-61
2023/03/08 08:27:33;;;;;;;;;;;0.70;99.90;;;;;;5092318;28;19966;-61
2023/03/08 08:29:59;;;;;;;;;;;0.80;99.90;;;;;;5079533;28;19916;-61
2023/03/08 08:32:25;;;;;;;;;;;0.90;99.90;;;;;;5074440;28;19908;-61
2023/03/08 08:34:50;;;;;;;;;;;1.00;99.90;;;;;;5075470;28;19908;-60
2023/03/08 08:37:15;;;;;;;;;;;1.10;99.90;;;;;;5075062;28;19909;-60
2023/03/08 08:39:41;;;;;;;;;;;1.20;99.90;;;;;;5089297;28;19935;-60
2023/03/08 08:42:06;;;;;;;;;;;1.30;99.90;;;;;;5095268;28;19968;-60
2023/03/08 08:44:32;;;;;;;;;;;1.30;99.90;;;;;;5095356;28;19908;-60
2023/03/08 08:46:57;;;;;;;;;;;1.40;99.90;;;;;;5094361;28;20286;-59
2023/03/08 08:49:23;;;;;;;;;;;1.30;99.90;;;;;;5094855;28;19956;-60
2023/03/08 08:51:48;;;;;;;;;;;1.30;99.90;;;;;;5095008;28;19930;-60
2023/03/08 08:54:14;;;;;;;;;;;1.30;99.90;;;;;;5093920;28;19920;-59
2023/03/08 08:56:41;;;;;;;;;;;1.40;99.90;;;;;;5095038;28;19962;-59
2023/03/08 08:59:08;;;;;;;;;;;1.50;99.90;;;;;;5094613;28;20370;-59
2023/03/08 09:01:38;;;;;;;;;;;1.60;99.90;;;;;;5093252;28;21260;-59
2023/03/08 09:04:04;;;;;;;;;;;1.60;99.90;;;;;;5094712;28;19916;-59
2023/03/08 09:06:29;;;;;;;;;;;1.70;99.90;;;;;;5094816;28;19973;-58
2023/03/08 09:08:58;;;;;;;;;;;1.70;99.90;;;;;;5080250;28;20027;-59
2023/03/08 09:11:24;;;;;;;;;;;1.70;99.90;;;;;;5074483;28;19916;-58
2023/03/08 09:13:50;;;;;;;;;;;1.70;99.90;;;;;;5074485;28;20007;-58
2023/03/08 09:16:17;;;;;;;;;;;1.70;99.90;;;;;;5073371;28;20026;-58
2023/03/08 09:18:43;;;;;;;;;;;1.70;99.90;;;;;;5085009;28;19912;-58
2023/03/08 09:21:09;;;;;;;;;;;1.80;99.90;;;;;;5094019;28;19958;-57
2023/03/08 09:23:35;;;;;;;;;;;1.80;99.90;;;;;;5093512;28;19912;-58
2023/03/08 09:26:00;;;;;;;;;;;1.90;99.90;;;;;;5094459;28;19938;-58
2023/03/08 09:28:25;;;;;;;;;;;1.90;99.90;;;;;;5093416;28;19916;-58
2023/03/08 09:30:51;;;;;;;;;;;1.90;99.90;;;;;;5094250;28;19947;-57
2023/03/08 09:33:16;;;;;;;;;;;1.90;99.90;;;;;;5094260;28;20447;-57
2023/03/08 09:35:42;;;;;;;;;;;2.00;99.90;;;;;;5093502;28;19908;-57
2023/03/08 09:38:07;;;;;;;;;;;2.10;99.90;;;;;;5082950;28;19912;-57
2023/03/08 09:40:38;;;;;;;;;;;2.10;99.90;;;;;;5073842;28;20015;-58
2023/03/08 09:43:05;;;;;;;;;;;2.10;99.90;;;;;;5073058;28;19919;-57
2023/03/08 09:45:30;;;;;;;;;;;2.20;99.90;;;;;;5073880;28;19940;-57
2023/03/08 09:48:11;;;;;;;;;;;2.30;99.90;;;;;;5075960;28;19990;-57
2023/03/08 09:50:53;;;;;;;;;;;2.30;99.90;;;;;;5093270;28;19908;-57
2023/03/08 09:53:19;;;;;;;;;;;2.40;99.90;;;;;;5093469;28;19923;-57
2023/03/08 09:55:47;;;;;;;;;;;2.50;99.90;;;;;;5093768;28;19999;-57
2023/03/08 09:58:12;;;;;;;;;;;2.40;99.90;;;;;;5093064;28;20321;-57
2023/03/08 10:00:39;;;;;;;;;;;2.50;99.90;;;;;;5093714;28;20406;-57
2023/03/08 10:03:05;;;;;;;;;;;2.60;99.90;;;;;;5093545;28;19912;-56
2023/03/08 10:05:36;;;;;;;;;;;2.70;99.90;;;;;;5092963;28;19915;-57
2023/03/08 10:08:07;;;;;;;;;;;2.70;99.90;;;;;;5079075;28;19913;-57
2023/03/08 10:10:38;;;;;;;;;;;2.80;99.90;;;;;;5072558;28;19923;-57
2023/03/08 10:13:12;;;;;;;;;;;2.90;99.90;;;;;;5073215;28;19912;-57
2023/03/08 10:15:42;;;;;;;;;;;2.90;99.90;;;;;;5080641;28;19908;-57
2023/03/08 10:18:19;;;;;;;;;;;2.90;99.90;;;;;;5092859;28;19918;-57
2023/03/08 10:20:45;;;;;;;;;;;3.00;99.90;;;;;;5093373;28;20282;-57
2023/03/08 10:23:18;;;;;;;;;;;3.10;99.90;;;;;;5093214;28;19966;-57
2023/03/08 10:25:45;;;;;;;;;;;3.20;99.90;;;;;;5092696;28;19950;-57
2023/03/08 10:28:12;;;;;;;;;;;3.30;99.90;;;;;;5093106;28;20006;-57
2023/03/08 10:30:44;;;;;;;;;;;3.30;99.90;;;;;;5082559;28;19908;-57
2023/03/08 10:33:11;;;;;;;;;;;3.40;99.90;;;;;;5072245;28;19913;-57
2023/03/08 10:35:54;;;;;;;;;;;3.40;99.90;;;;;;5072818;28;19921;-56
2023/03/08 10:38:20;;;;;;;;;;;3.50;99.90;;;;;;5072876;28;19914;-56
2023/03/08 10:40:46;;;;;;;;;;;3.60;99.90;;;;;;5072392;28;20006;-56
2023/03/08 10:43:28;;;;;;;;;;;3.60;99.90;;;;;;5072767;28;19908;-56
2023/03/08 10:46:14;;;;;;;;;;;3.70;99.90;;;;;;5071864;28;20367;-56
2023/03/08 10:48:40;;;;;;;;;;;3.80;99.90;;;;;;5072778;28;19927;-56
2023/03/08 10:51:13;;;;;;;;;;;3.90;99.90;;;;;;5072690;28;19909;-57
2023/03/08 10:53:39;;;;;;;;;;;4.10;99.90;;;;;;5072151;28;19916;-56
2023/03/08 10:56:20;;;;;;;;;;;4.20;99.90;;;;;;5072861;28;19909;-56
2023/03/08 10:58:47;;;;;;;;;;;4.30;99.90;;;;;;5072564;28;19924;-56
2023/03/08 11:01:29;;;;;;;;;;;4.40;99.90;;;;;;5079981;28;19920;-57
2023/03/08 11:03:58;;;;;;;;;;;4.50;99.90;;;;;;5072540;28;20367;-56
2023/03/08 11:06:24;;;;;;;;;;;4.50;99.90;;;;;;5072563;28;20003;-57
2023/03/08 11:08:51;;;;;;;;;;;4.50;99.90;;;;;;5071722;28;20019;-55
2023/03/08 11:11:16;;;;;;;;;;;4.50;99.90;;;;;;5090798;28;19916;-54
2023/03/08 11:13:46;;;;;;;;;;;4.50;99.90;;;;;;5092296;28;19914;-57
2023/03/08 11:16:14;;;;;;;;;;;4.50;99.90;;;;;;5072406;28;19909;-56
2023/03/08 11:18:44;;;;;;;;;;;4.40;99.90;;;;;;5072445;28;20436;-56
2023/03/08 11:21:19;;;;;;;;;;;4.40;99.90;;;;;;5088461;28;20390;-56
2023/03/08 11:23:50;;;;;;;;;;;4.30;99.90;;;;;;5092680;28;19912;-57
2023/03/08 11:26:21;;;;;;;;;;;4.40;99.90;;;;;;5092588;28;19951;-56
2023/03/08 11:29:11;;;;;;;;;;;4.30;99.90;;;;;;5088630;28;20414;-54
2023/03/08 11:31:37;;;;;;;;;;;4.40;99.90;;;;;;5072337;28;19995;-57
2023/03/08 11:34:07;;;;;;;;;;;4.40;99.90;;;;;;5072261;28;20346;-55
2023/03/08 11:36:42;;;;;;;;;;;4.40;99.90;;;;;;5071690;28;19909;-53
2023/03/08 11:39:08;;;;;;;;;;;4.40;99.90;;;;;;5077277;28;19912;-55
2023/03/08 11:41:52;;;;;;;;;;;4.40;99.90;;;;;;5092576;28;20270;-54
2023/03/08 11:44:35;;;;;;;;;;;4.40;99.90;;;;;;5095266;28;19991;-53
2023/03/08 11:47:07;;;;;;;;;;;4.50;99.90;;;;;;5096295;28;19908;-54
2023/03/08 11:49:35;;;;;;;;;;;4.50;99.90;;;;;;5086360;28;20346;-54
2023/03/08 11:52:19;;;;;;;;;;;4.50;99.90;;;;;;5076994;28;19912;-54
2023/03/08 11:54:52;;;;;;;;;;;4.50;99.90;;;;;;5075781;28;19908;-53
2023/03/08 11:57:18;;;;;;;;;;;4.60;99.90;;;;;;5075144;28;19950;-55
2023/03/08 11:59:51;;;;;;;;;;;4.60;99.90;;;;;;5076747;28;20283;-55
2023/03/08 12:02:27;;;;;;;;;;;4.60;99.90;;;;;;5075539;28;19908;-52
2023/03/08 12:04:56;;;;;;;;;;;4.70;99.90;;;;;;5074883;28;19909;-54
2023/03/08 12:07:25;;;;;;;;;;;4.70;99.90;;;;;;5075493;28;20336;-55
2023/03/08 12:09:54;;;;;;;;;;;4.80;99.90;;;;;;5086477;28;19962;-54
2023/03/08 12:12:19;;;;;;;;;;;4.80;99.90;;;;;;5095064;28;20006;-53
2023/03/08 12:14:56;;;;;;;;;;;4.80;99.90;;;;;;5095844;28;19950;-52
2023/03/08 12:17:34;;;;;;;;;;;4.80;99.90;;;;;;5094995;28;20277;-55
2023/03/08 12:19:59;;;;;;;;;;;4.90;99.90;;;;;;5083602;28;19920;-54
2023/03/08 12:22:32;;;;;;;;;;;4.90;99.90;;;;;;5075173;28;20359;-56
2023/03/08 12:25:06;;;;;;;;;;;4.90;99.90;;;;;;5074761;28;19916;-54
2023/03/08 12:27:35;;;;;;;;;;;4.90;99.90;;;;;;5075216;28;19908;-54
2023/03/08 12:30:11;;;;;;;;;;;4.90;99.90;;;;;;5086416;28;20367;-54
2023/03/08 12:32:38;;;;;;;;;;;4.90;99.90;;;;;;5094848;28;19961;-53
2023/03/08 12:35:05;;;;;;;;;;;4.90;99.90;;;;;;5095407;28;19961;-55
2023/03/08 12:37:31;;;;;;;;;;;5.00;99.90;;;;;;5095348;28;19908;-55
2023/03/08 12:40:22;;;;;;;;;;;5.00;99.90;;;;;;5083793;28;20011;-54
2023/03/08 12:42:48;;;;;;;;;;;5.00;99.90;;;;;;5074422;28;20363;-53
2023/03/08 12:45:19;;;;;;;;;;;5.10;99.90;;;;;;5074084;28;19919;-55
2023/03/08 12:48:00;;;;;;;;;;;5.10;99.90;;;;;;5074724;28;19918;-56
2023/03/08 12:50:26;;;;;;;;;;;5.20;99.90;;;;;;5074705;28;19916;-54
2023/03/08 12:52:51;;;;;;;;;;;5.20;99.90;;;;;;5073858;28;19963;-54
2023/03/08 12:55:19;;;;;;;;;;;5.20;99.90;;;;;;5074437;28;19912;-53
2023/03/08 12:57:52;;;;;;;;;;;5.20;99.90;;;;;;5074857;28;19909;-53
2023/03/08 13:00:30;;;;;;;;;;;5.30;99.90;;;;;;5073794;28;19921;-55
2023/03/08 13:03:21;;;;;;;;;;;5.30;99.90;;;;;;5074939;28;19950;-54
2023/03/08 13:05:48;;;;;;;;;;;5.30;99.90;;;;;;5074161;28;19908;-53
2023/03/08 13:08:17;;;;;;;;;;;5.40;99.90;;;;;;5073496;28;19920;-53
2023/03/08 13:10:48;;;;;;;;;;;5.30;99.90;;;;;;5074515;28;20507;-53
2023/03/08 13:13:23;;;;;;;;;;;5.30;99.90;;;;;;5074391;28;20359;-54
2023/03/08 13:15:49;;;;;;;;;;;5.20;99.90;;;;;;5074293;28;19915;-55
2023/03/08 13:18:17;;;;;;;;;;;5.20;99.90;;;;;;5074074;28;20356;-54
2023/03/08 13:20:52;;;;;;;;;;;5.20;99.90;;;;;;5073760;28;20421;-54
2023/03/08 13:23:47;;;;;;;;;;;5.10;99.90;;;;;;5074149;28;20309;-54
2023/03/08 13:26:22;;;;;;;;;;;5.10;99.90;;;;;;5064726;28;19908;-53
2023/03/08 13:28:48;;;;;;;;;;;5.10;99.90;;;;;;5073293;28;20015;-55
2023/03/08 13:31:13;;;;;;;;;;;5.00;99.90;;;;;;5073958;28;20497;-54
2023/03/08 13:33:41;;;;;;;;;;;5.00;99.90;;;;;;5074011;28;19978;-56
2023/03/08 13:36:12;;;;;;;;;;;5.00;99.90;;;;;;5073184;28;20022;-54
2023/03/08 13:38:38;;;;;;;;;;;5.00;99.90;;;;;;5081537;28;20371;-54
2023/03/08 13:41:03;;;;;;;;;;;5.00;99.90;;;;;;5093995;28;19919;-55
2023/03/08 13:43:30;;;;;;;;;;;5.00;99.90;;;;;;5093447;28;19909;-52
2023/03/08 13:45:57;;;;;;;;;;;4.90;99.90;;;;;;5094024;28;19908;-53
2023/03/08 13:48:24;;;;;;;;;;;4.90;99.90;;;;;;5093492;28;20161;-53
2023/03/08 13:50:50;;;;;;;;;;;5.00;99.90;;;;;;5093262;28;20362;-54
2023/03/08 13:53:17;;;;;;;;;;;5.00;99.90;;;;;;5093363;28;20033;-53
2023/03/08 13:55:44;;;;;;;;;;;5.00;99.90;;;;;;5093083;28;19996;-56
2023/03/08 13:58:29;;;;;;;;;;;5.00;99.90;;;;;;5093367;28;19908;-54
2023/03/08 14:01:16;;;;;;;;;;;4.90;99.90;;;;;;5093694;28;19924;-54
2023/03/08 14:03:42;;;;;;;;;;;4.90;99.90;;;;;;5092925;28;19915;-51
2023/03/08 14:06:37;;;;;;;;;;;4.90;99.90;;;;;;5092770;28;19943;-53
2023/03/08 14:09:03;;;;;;;;;;;4.90;99.90;;;;;;5067765;28;19974;-54
2023/03/08 14:11:31;;;;;;;;;;;4.90;99.90;;;;;;5072534;28;19951;-53
2023/03/08 14:13:57;;;;;;;;;;;4.90;99.90;;;;;;5073242;28;19937;-53
2023/03/08 14:16:29;;;;;;;;;;;5.00;99.90;;;;;;5073347;28;19913;-52
2023/03/08 14:18:55;;;;;;;;;;;5.10;99.90;;;;;;5086532;28;20021;-54
2023/03/08 14:21:22;;;;;;;;;;;5.10;99.90;;;;;;5093618;28;20007;-54
2023/03/08 14:23:51;;;;;;;;;;;5.20;99.90;;;;;;5092206;28;20423;-52
2023/03/08 14:26:34;;;;;;;;;;;5.10;99.90;;;;;;5093476;28;19915;-54